sensor_id;sensor_type;location;lat;lon;timestamp;pressure;altitude;pressure_sealevel;temperature
76476;BMP280;65308;50.078;14.854;2023-03-01T00:01:42;100299.53;;;-2.25
76476;BMP280;65308;50.078;14.854;2023-03-01T00:04:09;100297.41;;;-2.32
76476;BMP280;65308;50.078;14.854;2023-03-01T00:06:37;100306.41;;;-2.42
76476;BMP280;65308;50.078;14.854;2023-03-01T00:09:05;100296.38;;;-2.48
76476;BMP280;65308;50.078;14.854;2023-03-01T00:14:02;100309.53;;;-2.57
76476;BMP280;65308;50.078;14.854;2023-03-01T00:16:32;100308.75;;;-2.58
76476;BMP280;65308;50.078;14.854;2023-03-01T00:18:59;100309.69;;;-2.62
76476;BMP280;65308;50.078;14.854;2023-03-01T00:21:26;100305.09;;;-2.65
76476;BMP280;65308;50.078;14.854;2023-03-01T00:23:55;100307.25;;;-2.67
76476;BMP280;65308;50.078;14.854;2023-03-01T00:26:23;100300.78;;;-2.70
76476;BMP280;65308;50.078;14.854;2023-03-01T00:28:51;100297.09;;;-2.69
76476;BMP280;65308;50.078;14.854;2023-03-01T00:31:20;100294.03;;;-2.71
76476;BMP280;65308;50.078;14.854;2023-03-01T00:33:47;100290.94;;;-2.73
76476;BMP280;65308;50.078;14.854;2023-03-01T00:36:15;100293.91;;;-2.83
76476;BMP280;65308;50.078;14.854;2023-03-01T00:38:45;100290.69;;;-2.89
76476;BMP280;65308;50.078;14.854;2023-03-01T00:41:17;100283.28;;;-2.87
76476;BMP280;65308;50.078;14.854;2023-03-01T00:43:44;100287.28;;;-2.89
76476;BMP280;65308;50.078;14.854;2023-03-01T00:48:41;100283.44;;;-3.01
76476;BMP280;65308;50.078;14.854;2023-03-01T00:51:09;100286.25;;;-2.97
76476;BMP280;65308;50.078;14.854;2023-03-01T00:53:36;100277.13;;;-3.00
76476;BMP280;65308;50.078;14.854;2023-03-01T00:56:05;100275.13;;;-3.03
76476;BMP280;65308;50.078;14.854;2023-03-01T00:58:34;100277.91;;;-3.08
76476;BMP280;65308;50.078;14.854;2023-03-01T01:01:07;100267.13;;;-3.15
76476;BMP280;65308;50.078;14.854;2023-03-01T01:03:43;100275.16;;;-3.20
76476;BMP280;65308;50.078;14.854;2023-03-01T01:06:14;100264.56;;;-3.24
76476;BMP280;65308;50.078;14.854;2023-03-01T01:08:40;100260.38;;;-3.33
76476;BMP280;65308;50.078;14.854;2023-03-01T01:11:12;100252.22;;;-3.40
76476;BMP280;65308;50.078;14.854;2023-03-01T01:13:43;100252.22;;;-3.32
76476;BMP280;65308;50.078;14.854;2023-03-01T01:16:09;100255.94;;;-3.33
76476;BMP280;65308;50.078;14.854;2023-03-01T01:18:36;100254.22;;;-3.20
76476;BMP280;65308;50.078;14.854;2023-03-01T01:21:05;100244.81;;;-3.21
76476;BMP280;65308;50.078;14.854;2023-03-01T01:23:32;100253.13;;;-3.19
76476;BMP280;65308;50.078;14.854;2023-03-01T01:26:03;100260.84;;;-3.14
76476;BMP280;65308;50.078;14.854;2023-03-01T01:28:30;100254.81;;;-3.14
76476;BMP280;65308;50.078;14.854;2023-03-01T01:30:58;100257.41;;;-3.14
76476;BMP280;65308;50.078;14.854;2023-03-01T01:33:25;100257.28;;;-3.18
76476;BMP280;65308;50.078;14.854;2023-03-01T01:35:52;100251.91;;;-3.22
76476;BMP280;65308;50.078;14.854;2023-03-01T01:38:19;100254.06;;;-3.24
76476;BMP280;65308;50.078;14.854;2023-03-01T01:40:47;100254.69;;;-3.27
76476;BMP280;65308;50.078;14.854;2023-03-01T01:43:16;100249.44;;;-3.27
76476;BMP280;65308;50.078;14.854;2023-03-01T01:45:44;100245.28;;;-3.28
76476;BMP280;65308;50.078;14.854;2023-03-01T01:48:13;100248.69;;;-3.36
76476;BMP280;65308;50.078;14.854;2023-03-01T01:55:47;100243.47;;;-3.62
76476;BMP280;65308;50.078;14.854;2023-03-01T01:58:18;100241.16;;;-3.72
76476;BMP280;65308;50.078;14.854;2023-03-01T02:00:49;100240.06;;;-3.71
76476;BMP280;65308;50.078;14.854;2023-03-01T02:13:34;100219.47;;;-3.73
76476;BMP280;65308;50.078;14.854;2023-03-01T02:16:03;100221.00;;;-3.80
76476;BMP280;65308;50.078;14.854;2023-03-01T02:18:30;100214.38;;;-4.04
76476;BMP280;65308;50.078;14.854;2023-03-01T02:21:07;100219.44;;;-3.99
76476;BMP280;65308;50.078;14.854;2023-03-01T02:23:35;100216.19;;;-3.96
76476;BMP280;65308;50.078;14.854;2023-03-01T02:26:11;100218.19;;;-3.93
76476;BMP280;65308;50.078;14.854;2023-03-01T02:28:43;100211.59;;;-3.99
76476;BMP280;65308;50.078;14.854;2023-03-01T02:31:14;100217.75;;;-4.03
76476;BMP280;65308;50.078;14.854;2023-03-01T02:34:00;100221.13;;;-4.03
76476;BMP280;65308;50.078;14.854;2023-03-01T02:36:33;100214.81;;;-4.02
76476;BMP280;65308;50.078;14.854;2023-03-01T02:39:03;100215.16;;;-3.95
76476;BMP280;65308;50.078;14.854;2023-03-01T02:41:34;100215.56;;;-3.93
76476;BMP280;65308;50.078;14.854;2023-03-01T02:44:03;100217.59;;;-3.90
76476;BMP280;65308;50.078;14.854;2023-03-01T02:46:30;100216.50;;;-3.89
76476;BMP280;65308;50.078;14.854;2023-03-01T02:48:58;100216.81;;;-3.90
76476;BMP280;65308;50.078;14.854;2023-03-01T02:51:34;100211.56;;;-3.90
76476;BMP280;65308;50.078;14.854;2023-03-01T02:54:14;100211.13;;;-3.84
76476;BMP280;65308;50.078;14.854;2023-03-01T02:56:42;100218.81;;;-3.78
76476;BMP280;65308;50.078;14.854;2023-03-01T02:59:15;100218.03;;;-3.79
76476;BMP280;65308;50.078;14.854;2023-03-01T03:01:47;100209.44;;;-3.79
76476;BMP280;65308;50.078;14.854;2023-03-01T03:04:16;100217.13;;;-3.83
76476;BMP280;65308;50.078;14.854;2023-03-01T03:06:43;100216.22;;;-3.87
76476;BMP280;65308;50.078;14.854;2023-03-01T03:09:11;100219.00;;;-3.92
76476;BMP280;65308;50.078;14.854;2023-03-01T03:11:37;100205.44;;;-3.94
76476;BMP280;65308;50.078;14.854;2023-03-01T03:14:06;100206.03;;;-3.97
76476;BMP280;65308;50.078;14.854;2023-03-01T03:16:41;100203.13;;;-4.05
76476;BMP280;65308;50.078;14.854;2023-03-01T03:19:08;100200.50;;;-4.05
76476;BMP280;65308;50.078;14.854;2023-03-01T03:21:35;100208.03;;;-4.03
76476;BMP280;65308;50.078;14.854;2023-03-01T03:24:06;100208.34;;;-4.05
76476;BMP280;65308;50.078;14.854;2023-03-01T03:26:32;100208.34;;;-4.05
76476;BMP280;65308;50.078;14.854;2023-03-01T03:28:59;100195.88;;;-4.08
76476;BMP280;65308;50.078;14.854;2023-03-01T03:31:26;100200.81;;;-4.06
76476;BMP280;65308;50.078;14.854;2023-03-01T03:33:55;100187.41;;;-4.05
76476;BMP280;65308;50.078;14.854;2023-03-01T03:36:23;100191.72;;;-4.00
76476;BMP280;65308;50.078;14.854;2023-03-01T03:38:50;100192.81;;;-4.01
76476;BMP280;65308;50.078;14.854;2023-03-01T03:41:18;100193.88;;;-4.02
76476;BMP280;65308;50.078;14.854;2023-03-01T03:43:48;100196.03;;;-3.95
76476;BMP280;65308;50.078;14.854;2023-03-01T03:46:15;100186.50;;;-3.91
76476;BMP280;65308;50.078;14.854;2023-03-01T03:48:43;100194.66;;;-3.93
76476;BMP280;65308;50.078;14.854;2023-03-01T03:51:13;100195.28;;;-3.96
76476;BMP280;65308;50.078;14.854;2023-03-01T03:53:41;100192.34;;;-4.03
76476;BMP280;65308;50.078;14.854;2023-03-01T03:56:08;100189.56;;;-4.15
76476;BMP280;65308;50.078;14.854;2023-03-01T03:58:35;100176.19;;;-4.05
76476;BMP280;65308;50.078;14.854;2023-03-01T04:01:03;100167.88;;;-4.16
76476;BMP280;65308;50.078;14.854;2023-03-01T04:03:30;100177.69;;;-4.21
76476;BMP280;65308;50.078;14.854;2023-03-01T04:05:59;100175.56;;;-4.19
76476;BMP280;65308;50.078;14.854;2023-03-01T04:16:06;100168.47;;;-4.10
76476;BMP280;65308;50.078;14.854;2023-03-01T04:18:32;100174.19;;;-4.08
76476;BMP280;65308;50.078;14.854;2023-03-01T04:20:59;100182.78;;;-4.08
76476;BMP280;65308;50.078;14.854;2023-03-01T04:23:26;100177.84;;;-4.09
76476;BMP280;65308;50.078;14.854;2023-03-01T04:25:55;100181.09;;;-4.12
76476;BMP280;65308;50.078;14.854;2023-03-01T04:28:24;100186.94;;;-4.15
76476;BMP280;65308;50.078;14.854;2023-03-01T04:30:51;100182.63;;;-4.20
76476;BMP280;65308;50.078;14.854;2023-03-01T04:33:20;100180.03;;;-4.20
76476;BMP280;65308;50.078;14.854;2023-03-01T04:35:49;100188.03;;;-4.25
76476;BMP280;65308;50.078;14.854;2023-03-01T04:38:16;100186.31;;;-4.30
76476;BMP280;65308;50.078;14.854;2023-03-01T04:40:43;100179.09;;;-4.33
76476;BMP280;65308;50.078;14.854;2023-03-01T04:43:11;100190.63;;;-4.25
76476;BMP280;65308;50.078;14.854;2023-03-01T04:45:43;100181.09;;;-4.21
76476;BMP280;65308;50.078;14.854;2023-03-01T04:48:10;100188.63;;;-4.19
76476;BMP280;65308;50.078;14.854;2023-03-01T04:50:41;100198.47;;;-4.16
76476;BMP280;65308;50.078;14.854;2023-03-01T04:53:11;100191.72;;;-4.17
76476;BMP280;65308;50.078;14.854;2023-03-01T04:55:38;100189.25;;;-4.22
76476;BMP280;65308;50.078;14.854;2023-03-01T04:58:04;100188.75;;;-4.33
76476;BMP280;65308;50.078;14.854;2023-03-01T05:00:31;100196.31;;;-4.32
76476;BMP280;65308;50.078;14.854;2023-03-01T05:03:00;100187.84;;;-4.37
76476;BMP280;65308;50.078;14.854;2023-03-01T05:05:28;100174.88;;;-4.42
76476;BMP280;65308;50.078;14.854;2023-03-01T05:07:58;100180.44;;;-4.44
76476;BMP280;65308;50.078;14.854;2023-03-01T05:10:26;100176.13;;;-4.49
76476;BMP280;65308;50.078;14.854;2023-03-01T05:12:54;100173.81;;;-4.50
76476;BMP280;65308;50.078;14.854;2023-03-01T05:15:22;100173.66;;;-4.54
76476;BMP280;65308;50.078;14.854;2023-03-01T05:17:50;100183.31;;;-4.54
76476;BMP280;65308;50.078;14.854;2023-03-01T05:20:17;100174.72;;;-4.55
76476;BMP280;65308;50.078;14.854;2023-03-01T05:26:20;100164.91;;;-4.49
76476;BMP280;65308;50.078;14.854;2023-03-01T05:28:53;100165.22;;;-4.42
76476;BMP280;65308;50.078;14.854;2023-03-01T05:31:24;100161.66;;;-4.46
76476;BMP280;65308;50.078;14.854;2023-03-01T05:33:55;100164.13;;;-4.41
76476;BMP280;65308;50.078;14.854;2023-03-01T05:36:28;100156.44;;;-4.46
76476;BMP280;65308;50.078;14.854;2023-03-01T05:38:56;100160.59;;;-4.45
76476;BMP280;65308;50.078;14.854;2023-03-01T05:47:15;100153.06;;;-4.47
76476;BMP280;65308;50.078;14.854;2023-03-01T05:49:43;100165.66;;;-4.49
76476;BMP280;65308;50.078;14.854;2023-03-01T05:52:23;100164.28;;;-4.46
76476;BMP280;65308;50.078;14.854;2023-03-01T05:54:51;100167.22;;;-4.39
76476;BMP280;65308;50.078;14.854;2023-03-01T05:57:18;100166.75;;;-4.41
76476;BMP280;65308;50.078;14.854;2023-03-01T05:59:48;100167.66;;;-4.46
76476;BMP280;65308;50.078;14.854;2023-03-01T07:43:40;100243.50;;;19.12
76476;BMP280;65308;50.078;14.854;2023-03-01T07:46:27;100254.63;;;19.60
76476;BMP280;65308;50.078;14.854;2023-03-01T07:48:57;100243.66;;;19.75
76476;BMP280;65308;50.078;14.854;2023-03-01T07:51:28;100251.97;;;19.92
76476;BMP280;65308;50.078;14.854;2023-03-01T07:53:58;100247.50;;;20.52
76476;BMP280;65308;50.078;14.854;2023-03-01T07:56:29;100245.50;;;20.47
76476;BMP280;65308;50.078;14.854;2023-03-01T08:01:29;100238.59;;;20.51
76476;BMP280;65308;50.078;14.854;2023-03-01T08:03:56;100238.75;;;20.79
76476;BMP280;65308;50.078;14.854;2023-03-01T08:06:23;100234.59;;;19.31
76476;BMP280;65308;50.078;14.854;2023-03-01T08:09:04;100232.28;;;19.97
76476;BMP280;65308;50.078;14.854;2023-03-01T08:11:35;100221.00;;;18.70
76476;BMP280;65308;50.078;14.854;2023-03-01T08:14:10;100208.34;;;18.47
76476;BMP280;65308;50.078;14.854;2023-03-01T08:16:38;100221.25;;;18.72
76476;BMP280;65308;50.078;14.854;2023-03-01T08:19:06;100208.91;;;18.36
76476;BMP280;65308;50.078;14.854;2023-03-01T08:21:38;100206.47;;;18.53
76476;BMP280;65308;50.078;14.854;2023-03-01T08:24:06;100203.19;;;18.49
76476;BMP280;65308;50.078;14.854;2023-03-01T08:26:35;100211.00;;;18.62
76476;BMP280;65308;50.078;14.854;2023-03-01T08:29:11;100203.00;;;18.38
76476;BMP280;65308;50.078;14.854;2023-03-01T08:39:09;100192.75;;;18.27
76476;BMP280;65308;50.078;14.854;2023-03-01T08:41:39;100188.19;;;18.18
76476;BMP280;65308;50.078;14.854;2023-03-01T08:44:06;100197.16;;;18.24
76476;BMP280;65308;50.078;14.854;2023-03-01T08:46:35;100186.72;;;18.17
76476;BMP280;65308;50.078;14.854;2023-03-01T08:49:03;100191.16;;;16.41
76476;BMP280;65308;50.078;14.854;2023-03-01T08:51:34;100195.91;;;15.95
76476;BMP280;65308;50.078;14.854;2023-03-01T08:54:02;100191.69;;;15.75
76476;BMP280;65308;50.078;14.854;2023-03-01T08:56:30;100192.09;;;16.20
76476;BMP280;65308;50.078;14.854;2023-03-01T08:58:57;100181.56;;;16.40
76476;BMP280;65308;50.078;14.854;2023-03-01T09:01:23;100178.94;;;14.71
76476;BMP280;65308;50.078;14.854;2023-03-01T09:03:50;100169.97;;;14.74
76476;BMP280;65308;50.078;14.854;2023-03-01T09:06:17;100167.75;;;13.76
76476;BMP280;65308;50.078;14.854;2023-03-01T09:08:45;100166.78;;;14.36
76476;BMP280;65308;50.078;14.854;2023-03-01T09:11:13;100165.75;;;14.73
76476;BMP280;65308;50.078;14.854;2023-03-01T09:13:45;100164.50;;;14.96
76476;BMP280;65308;50.078;14.854;2023-03-01T09:16:13;100161.09;;;13.20
76476;BMP280;65308;50.078;14.854;2023-03-01T09:18:40;100160.84;;;12.25
76476;BMP280;65308;50.078;14.854;2023-03-01T09:21:11;100150.38;;;11.86
76476;BMP280;65308;50.078;14.854;2023-03-01T09:23:39;100150.50;;;12.53
76476;BMP280;65308;50.078;14.854;2023-03-01T09:26:07;100146.59;;;12.54
76476;BMP280;65308;50.078;14.854;2023-03-01T09:28:35;100151.16;;;11.04
76476;BMP280;65308;50.078;14.854;2023-03-01T09:31:06;100139.59;;;10.75
76476;BMP280;65308;50.078;14.854;2023-03-01T09:33:33;100135.09;;;10.08
76476;BMP280;65308;50.078;14.854;2023-03-01T09:36:01;100131.56;;;9.48
76476;BMP280;65308;50.078;14.854;2023-03-01T09:38:29;100133.97;;;9.66
76476;BMP280;65308;50.078;14.854;2023-03-01T09:40:56;100139.94;;;10.57
76476;BMP280;65308;50.078;14.854;2023-03-01T09:43:26;100126.22;;;8.94
76476;BMP280;65308;50.078;14.854;2023-03-01T09:45:59;100122.41;;;9.22
76476;BMP280;65308;50.078;14.854;2023-03-01T09:48:32;100126.09;;;10.22
76476;BMP280;65308;50.078;14.854;2023-03-01T09:51:03;100124.25;;;10.75
76476;BMP280;65308;50.078;14.854;2023-03-01T09:53:33;100129.81;;;11.50
76476;BMP280;65308;50.078;14.854;2023-03-01T09:56:05;100127.78;;;11.05
76476;BMP280;65308;50.078;14.854;2023-03-01T09:58:39;100126.97;;;11.57
76476;BMP280;65308;50.078;14.854;2023-03-01T10:01:17;100122.38;;;11.58
76476;BMP280;65308;50.078;14.854;2023-03-01T10:04:01;100114.09;;;11.81
76476;BMP280;65308;50.078;14.854;2023-03-01T10:06:29;100109.00;;;10.36
76476;BMP280;65308;50.078;14.854;2023-03-01T10:09:03;100114.72;;;10.74
76476;BMP280;65308;50.078;14.854;2023-03-01T10:14:04;100110.75;;;11.15
76476;BMP280;65308;50.078;14.854;2023-03-01T10:16:41;100108.94;;;9.53
76476;BMP280;65308;50.078;14.854;2023-03-01T10:19:14;100114.16;;;9.83
76476;BMP280;65308;50.078;14.854;2023-03-01T10:21:45;100113.00;;;10.64
76476;BMP280;65308;50.078;14.854;2023-03-01T10:24:17;100107.50;;;10.71
76476;BMP280;65308;50.078;14.854;2023-03-01T10:26:55;100104.78;;;10.75
76476;BMP280;65308;50.078;14.854;2023-03-01T10:29:29;100111.34;;;10.14
76476;BMP280;65308;50.078;14.854;2023-03-01T10:32:01;100104.66;;;8.81
76476;BMP280;65308;50.078;14.854;2023-03-01T10:39:31;100085.19;;;8.16
76476;BMP280;65308;50.078;14.854;2023-03-01T10:41:59;100088.56;;;8.85
76476;BMP280;65308;50.078;14.854;2023-03-01T10:44:41;100088.75;;;8.06
76476;BMP280;65308;50.078;14.854;2023-03-01T10:47:18;100089.41;;;8.17
76476;BMP280;65308;50.078;14.854;2023-03-01T10:52:35;100074.47;;;6.70
76476;BMP280;65308;50.078;14.854;2023-03-01T11:02:49;100065.53;;;5.75
76476;BMP280;65308;50.078;14.854;2023-03-01T11:05:22;100066.69;;;5.88
76476;BMP280;65308;50.078;14.854;2023-03-01T11:07:58;100056.63;;;6.53
76476;BMP280;65308;50.078;14.854;2023-03-01T11:10:30;100053.63;;;7.21
76476;BMP280;65308;50.078;14.854;2023-03-01T11:13:09;100055.13;;;7.74
76476;BMP280;65308;50.078;14.854;2023-03-01T11:15:59;100046.66;;;7.41
76476;BMP280;65308;50.078;14.854;2023-03-01T11:21:01;100032.06;;;7.57
76476;BMP280;65308;50.078;14.854;2023-03-01T11:23:33;100039.34;;;7.90
76476;BMP280;65308;50.078;14.854;2023-03-01T11:26:17;100032.97;;;7.84
76476;BMP280;65308;50.078;14.854;2023-03-01T11:28:51;100028.56;;;7.63
76476;BMP280;65308;50.078;14.854;2023-03-01T11:31:25;100027.91;;;7.93
76476;BMP280;65308;50.078;14.854;2023-03-01T11:33:59;100020.47;;;7.77
76476;BMP280;65308;50.078;14.854;2023-03-01T11:36:34;100013.22;;;7.33
76476;BMP280;65308;50.078;14.854;2023-03-01T11:39:12;100012.66;;;7.52
76476;BMP280;65308;50.078;14.854;2023-03-01T11:42:02;100007.25;;;7.63
76476;BMP280;65308;50.078;14.854;2023-03-01T11:44:33;100004.75;;;7.87
76476;BMP280;65308;50.078;14.854;2023-03-01T11:47:17;99992.13;;;7.91
76476;BMP280;65308;50.078;14.854;2023-03-01T11:50:08;99997.47;;;7.91
76476;BMP280;65308;50.078;14.854;2023-03-01T11:52:48;99992.22;;;7.46
76476;BMP280;65308;50.078;14.854;2023-03-01T11:55:24;99995.06;;;7.21
76476;BMP280;65308;50.078;14.854;2023-03-01T11:58:12;99998.59;;;7.52
76476;BMP280;65308;50.078;14.854;2023-03-01T12:01:09;99986.81;;;7.49
76476;BMP280;65308;50.078;14.854;2023-03-01T12:06:52;99982.03;;;5.90
76476;BMP280;65308;50.078;14.854;2023-03-01T12:09:33;99973.31;;;5.79
76476;BMP280;65308;50.078;14.854;2023-03-01T12:12:25;99967.25;;;5.60
76476;BMP280;65308;50.078;14.854;2023-03-01T12:15:15;99970.63;;;5.86
76476;BMP280;65308;50.078;14.854;2023-03-01T12:20:51;99963.78;;;5.92
76476;BMP280;65308;50.078;14.854;2023-03-01T12:23:37;99956.91;;;6.16
76476;BMP280;65308;50.078;14.854;2023-03-01T12:28:55;99955.72;;;6.24
76476;BMP280;65308;50.078;14.854;2023-03-01T12:31:48;99951.31;;;5.75
76476;BMP280;65308;50.078;14.854;2023-03-01T12:34:38;99952.81;;;5.83
76476;BMP280;65308;50.078;14.854;2023-03-01T12:37:22;99947.88;;;5.67
76476;BMP280;65308;50.078;14.854;2023-03-01T12:40:03;99951.66;;;5.80
76476;BMP280;65308;50.078;14.854;2023-03-01T12:42:48;99934.66;;;5.53
76476;BMP280;65308;50.078;14.854;2023-03-01T12:45:39;99933.09;;;5.69
76476;BMP280;65308;50.078;14.854;2023-03-01T12:48:21;99928.09;;;5.93
76476;BMP280;65308;50.078;14.854;2023-03-01T12:54:16;99925.84;;;5.81
76476;BMP280;65308;50.078;14.854;2023-03-01T12:56:48;99930.41;;;5.84
76476;BMP280;65308;50.078;14.854;2023-03-01T13:00:28;99933.81;;;5.84
76476;BMP280;65308;50.078;14.854;2023-03-01T13:05:56;99926.69;;;5.35
76476;BMP280;65308;50.078;14.854;2023-03-01T13:08:31;99915.69;;;5.47
76476;BMP280;65308;50.078;14.854;2023-03-01T13:11:01;99923.53;;;5.97
76476;BMP280;65308;50.078;14.854;2023-03-01T13:13:29;99912.94;;;5.90
76476;BMP280;65308;50.078;14.854;2023-03-01T13:15:57;99912.09;;;6.14
76476;BMP280;65308;50.078;14.854;2023-03-01T13:18:32;99900.97;;;6.30
76476;BMP280;65308;50.078;14.854;2023-03-01T13:21:04;99897.16;;;6.38
76476;BMP280;65308;50.078;14.854;2023-03-01T13:23:37;99899.88;;;6.24
76476;BMP280;65308;50.078;14.854;2023-03-01T13:26:09;99901.75;;;6.31
76476;BMP280;65308;50.078;14.854;2023-03-01T13:34:44;99890.72;;;6.32
76476;BMP280;65308;50.078;14.854;2023-03-01T13:37:19;99888.75;;;6.47
76476;BMP280;65308;50.078;14.854;2023-03-01T13:39:47;99884.09;;;6.62
76476;BMP280;65308;50.078;14.854;2023-03-01T13:42:33;99892.81;;;6.62
76476;BMP280;65308;50.078;14.854;2023-03-01T13:45:02;99893.09;;;6.12
76476;BMP280;65308;50.078;14.854;2023-03-01T13:47:31;99897.56;;;6.37
76476;BMP280;65308;50.078;14.854;2023-03-01T13:50:02;99899.44;;;6.40
76476;BMP280;65308;50.078;14.854;2023-03-01T13:52:40;99893.81;;;6.24
76476;BMP280;65308;50.078;14.854;2023-03-01T13:55:17;99894.13;;;6.40
76476;BMP280;65308;50.078;14.854;2023-03-01T13:57:49;99890.19;;;6.55
76476;BMP280;65308;50.078;14.854;2023-03-01T14:00:36;99899.59;;;6.04
76476;BMP280;65308;50.078;14.854;2023-03-01T14:03:08;99887.78;;;6.05
76476;BMP280;65308;50.078;14.854;2023-03-01T14:05:42;99890.06;;;6.14
76476;BMP280;65308;50.078;14.854;2023-03-01T14:08:22;99879.88;;;6.02
76476;BMP280;65308;50.078;14.854;2023-03-01T14:14:02;99880.94;;;6.15
76476;BMP280;65308;50.078;14.854;2023-03-01T14:16:40;99879.44;;;6.14
76476;BMP280;65308;50.078;14.854;2023-03-01T14:19:15;99884.31;;;6.26
76476;BMP280;65308;50.078;14.854;2023-03-01T14:21:46;99881.28;;;6.24
76476;BMP280;65308;50.078;14.854;2023-03-01T14:24:21;99867.91;;;6.38
76476;BMP280;65308;50.078;14.854;2023-03-01T14:26:52;99870.50;;;6.49
76476;BMP280;65308;50.078;14.854;2023-03-01T14:29:37;99873.66;;;6.30
76476;BMP280;65308;50.078;14.854;2023-03-01T14:32:12;99861.59;;;6.11
76476;BMP280;65308;50.078;14.854;2023-03-01T14:34:43;99880.53;;;6.16
76476;BMP280;65308;50.078;14.854;2023-03-01T14:37:17;99872.66;;;5.99
76476;BMP280;65308;50.078;14.854;2023-03-01T14:39:46;99871.13;;;5.94
76476;BMP280;65308;50.078;14.854;2023-03-01T14:42:13;99861.28;;;6.02
76476;BMP280;65308;50.078;14.854;2023-03-01T14:44:42;99861.81;;;6.38
76476;BMP280;65308;50.078;14.854;2023-03-01T14:47:12;99859.31;;;6.09
76476;BMP280;65308;50.078;14.854;2023-03-01T14:49:41;99848.66;;;6.13
76476;BMP280;65308;50.078;14.854;2023-03-01T14:52:18;99845.56;;;6.22
76476;BMP280;65308;50.078;14.854;2023-03-01T14:57:25;99849.91;;;6.57
76476;BMP280;65308;50.078;14.854;2023-03-01T14:59:55;99848.00;;;6.57
76476;BMP280;65308;50.078;14.854;2023-03-01T15:02:27;99851.13;;;6.45
76476;BMP280;65308;50.078;14.854;2023-03-01T15:05:00;99850.28;;;6.59
76476;BMP280;65308;50.078;14.854;2023-03-01T15:07:33;99856.81;;;6.44
76476;BMP280;65308;50.078;14.854;2023-03-01T15:10:05;99857.53;;;6.55
76476;BMP280;65308;50.078;14.854;2023-03-01T15:12:39;99858.31;;;6.48
76476;BMP280;65308;50.078;14.854;2023-03-01T15:15:32;99857.88;;;6.60
76476;BMP280;65308;50.078;14.854;2023-03-01T15:18:05;99864.56;;;6.20
76476;BMP280;65308;50.078;14.854;2023-03-01T15:20:36;99860.41;;;6.23
76476;BMP280;65308;50.078;14.854;2023-03-01T15:23:12;99865.56;;;6.48
76476;BMP280;65308;50.078;14.854;2023-03-01T15:25:48;99864.00;;;6.54
76476;BMP280;65308;50.078;14.854;2023-03-01T15:31:01;99859.44;;;6.54
76476;BMP280;65308;50.078;14.854;2023-03-01T15:33:35;99866.31;;;6.48
76476;BMP280;65308;50.078;14.854;2023-03-01T15:36:30;99869.56;;;6.07
76476;BMP280;65308;50.078;14.854;2023-03-01T15:45:11;99861.16;;;6.20
76476;BMP280;65308;50.078;14.854;2023-03-01T15:47:54;99865.25;;;6.35
76476;BMP280;65308;50.078;14.854;2023-03-01T15:58:15;99864.34;;;5.86
76476;BMP280;65308;50.078;14.854;2023-03-01T16:06:11;99852.97;;;5.85
76476;BMP280;65308;50.078;14.854;2023-03-01T16:09:06;99846.13;;;5.91
76476;BMP280;65308;50.078;14.854;2023-03-01T16:16:53;99847.31;;;5.72
76476;BMP280;65308;50.078;14.854;2023-03-01T16:19:35;99855.97;;;5.94
76476;BMP280;65308;50.078;14.854;2023-03-01T16:40:25;99851.56;;;5.48
76476;BMP280;65308;50.078;14.854;2023-03-01T16:43:28;99863.69;;;5.60
76476;BMP280;65308;50.078;14.854;2023-03-01T16:49:18;99850.34;;;5.75
76476;BMP280;65308;50.078;14.854;2023-03-01T16:51:49;99857.56;;;5.67
76476;BMP280;65308;50.078;14.854;2023-03-01T16:54:20;99854.56;;;5.65
76476;BMP280;65308;50.078;14.854;2023-03-01T16:56:49;99860.63;;;5.69
76476;BMP280;65308;50.078;14.854;2023-03-01T16:59:18;99862.56;;;5.61
76476;BMP280;65308;50.078;14.854;2023-03-01T17:01:47;99850.34;;;5.67
76476;BMP280;65308;50.078;14.854;2023-03-01T17:04:25;99840.91;;;5.63
76476;BMP280;65308;50.078;14.854;2023-03-01T17:06:57;99843.19;;;5.54
76476;BMP280;65308;50.078;14.854;2023-03-01T17:09:24;99842.44;;;5.53
76476;BMP280;65308;50.078;14.854;2023-03-01T17:11:52;99854.59;;;5.54
76476;BMP280;65308;50.078;14.854;2023-03-01T17:16:52;99849.28;;;5.54
76476;BMP280;65308;50.078;14.854;2023-03-01T17:19:23;99844.00;;;5.47
76476;BMP280;65308;50.078;14.854;2023-03-01T17:21:53;99845.91;;;5.39
76476;BMP280;65308;50.078;14.854;2023-03-01T17:24:20;99845.16;;;5.39
76476;BMP280;65308;50.078;14.854;2023-03-01T17:35:50;99854.28;;;5.02
76476;BMP280;65308;50.078;14.854;2023-03-01T17:38:28;99845.22;;;4.92
76476;BMP280;65308;50.078;14.854;2023-03-01T17:41:05;99867.56;;;4.95
76476;BMP280;65308;50.078;14.854;2023-03-01T17:43:41;99847.81;;;4.85
76476;BMP280;65308;50.078;14.854;2023-03-01T17:46:12;99859.19;;;4.75
76476;BMP280;65308;50.078;14.854;2023-03-01T17:48:42;99863.41;;;4.83
76476;BMP280;65308;50.078;14.854;2023-03-01T17:51:15;99856.56;;;4.82
76476;BMP280;65308;50.078;14.854;2023-03-01T17:53:46;99867.94;;;4.83
76476;BMP280;65308;50.078;14.854;2023-03-01T17:56:22;99858.44;;;4.78
76476;BMP280;65308;50.078;14.854;2023-03-01T17:59:07;99850.88;;;4.66
76476;BMP280;65308;50.078;14.854;2023-03-01T18:01:35;99858.41;;;4.71
76476;BMP280;65308;50.078;14.854;2023-03-01T18:04:04;99859.56;;;4.63
76476;BMP280;65308;50.078;14.854;2023-03-01T18:09:12;99850.84;;;4.55
76476;BMP280;65308;50.078;14.854;2023-03-01T18:11:49;99856.16;;;4.51
76476;BMP280;65308;50.078;14.854;2023-03-01T18:14:19;99847.41;;;4.44
76476;BMP280;65308;50.078;14.854;2023-03-01T18:19:26;99848.53;;;4.28
76476;BMP280;65308;50.078;14.854;2023-03-01T18:22:11;99840.91;;;4.12
76476;BMP280;65308;50.078;14.854;2023-03-01T18:50:08;99854.16;;;2.91
76476;BMP280;65308;50.078;14.854;2023-03-01T18:52:38;99850.53;;;2.66
76476;BMP280;65308;50.078;14.854;2023-03-01T18:55:06;99839.59;;;2.71
76476;BMP280;65308;50.078;14.854;2023-03-01T18:57:34;99844.94;;;2.74
76476;BMP280;65308;50.078;14.854;2023-03-01T19:20:19;99863.31;;;2.60
76476;BMP280;65308;50.078;14.854;2023-03-01T19:22:58;99867.66;;;2.45
76476;BMP280;65308;50.078;14.854;2023-03-01T19:25:25;99870.22;;;2.34
76476;BMP280;65308;50.078;14.854;2023-03-01T19:27:52;99870.91;;;2.31
76476;BMP280;65308;50.078;14.854;2023-03-01T19:30:21;99864.06;;;2.27